sensor_id;sensor_type;location;lat;lon;timestamp;pressure;altitude;pressure_sealevel;temperature;humidity
72961;BME280;61141;46.204;19.774;2023-01-28T00:01:33;100360.91;;;1.64;92.56
72961;BME280;61141;46.204;19.774;2023-01-28T00:04:36;100344.94;;;1.46;93.52
72961;BME280;61141;46.204;19.774;2023-01-28T00:07:38;100368.72;;;1.74;92.87
72961;BME280;61141;46.204;19.774;2023-01-28T00:10:42;100355.28;;;1.83;91.99
72961;BME280;61141;46.204;19.774;2023-01-28T00:13:44;100340.16;;;1.73;91.21
72961;BME280;61141;46.204;19.774;2023-01-28T00:16:47;100375.31;;;1.82;91.85
72961;BME280;61141;46.204;19.774;2023-01-28T00:19:50;100373.69;;;1.81;91.15
72961;BME280;61141;46.204;19.774;2023-01-28T00:22:53;100368.87;;;2.00;90.99
72961;BME280;61141;46.204;19.774;2023-01-28T00:26:00;100371.56;;;1.69;91.75
72961;BME280;61141;46.204;19.774;2023-01-28T00:29:03;100372.37;;;1.70;91.52
72961;BME280;61141;46.204;19.774;2023-01-28T00:32:06;100372.28;;;1.84;91.63
72961;BME280;61141;46.204;19.774;2023-01-28T00:35:09;100370.62;;;1.65;91.66
72961;BME280;61141;46.204;19.774;2023-01-28T00:38:15;100379.25;;;1.76;90.93
72961;BME280;61141;46.204;19.774;2023-01-28T00:41:22;100387.25;;;1.90;90.86
72961;BME280;61141;46.204;19.774;2023-01-28T00:44:25;100376.78;;;1.97;90.82
72961;BME280;61141;46.204;19.774;2023-01-28T00:47:28;100384.50;;;1.81;90.78
72961;BME280;61141;46.204;19.774;2023-01-28T00:50:31;100360.44;;;1.62;90.09
72961;BME280;61141;46.204;19.774;2023-01-28T00:53:35;100384.66;;;2.15;90.00
72961;BME280;61141;46.204;19.774;2023-01-28T00:56:38;100389.00;;;1.94;89.52
72961;BME280;61141;46.204;19.774;2023-01-28T00:59:41;100374.12;;;1.74;90.68
72961;BME280;61141;46.204;19.774;2023-01-28T01:02:45;100398.62;;;1.78;90.67
72961;BME280;61141;46.204;19.774;2023-01-28T01:05:48;100393.13;;;1.92;90.63
72961;BME280;61141;46.204;19.774;2023-01-28T01:08:50;100399.41;;;2.09;90.29
72961;BME280;61141;46.204;19.774;2023-01-28T01:11:53;100400.63;;;1.95;89.95
72961;BME280;61141;46.204;19.774;2023-01-28T01:14:56;100400.69;;;2.12;90.48
72961;BME280;61141;46.204;19.774;2023-01-28T01:17:59;100404.41;;;1.94;90.32
72961;BME280;61141;46.204;19.774;2023-01-28T01:21:02;100403.59;;;1.85;90.97
72961;BME280;61141;46.204;19.774;2023-01-28T01:24:09;100397.84;;;2.17;91.60
72961;BME280;61141;46.204;19.774;2023-01-28T01:27:11;100406.13;;;2.20;90.85
72961;BME280;61141;46.204;19.774;2023-01-28T01:30:15;100421.13;;;2.35;91.15
72961;BME280;61141;46.204;19.774;2023-01-28T01:33:18;100415.41;;;1.97;91.55
72961;BME280;61141;46.204;19.774;2023-01-28T01:36:21;100413.03;;;1.96;91.94
72961;BME280;61141;46.204;19.774;2023-01-28T01:39:25;100401.00;;;2.10;90.99
72961;BME280;61141;46.204;19.774;2023-01-28T01:42:29;100417.28;;;1.97;91.14
72961;BME280;61141;46.204;19.774;2023-01-28T01:45:32;100415.63;;;2.09;92.28
72961;BME280;61141;46.204;19.774;2023-01-28T01:48:36;100425.16;;;2.55;89.99
72961;BME280;61141;46.204;19.774;2023-01-28T01:51:39;100426.72;;;2.38;89.92
72961;BME280;61141;46.204;19.774;2023-01-28T01:54:46;100421.84;;;2.10;90.97
72961;BME280;61141;46.204;19.774;2023-01-28T01:57:52;100423.22;;;1.99;91.95
72961;BME280;61141;46.204;19.774;2023-01-28T02:00:58;100402.59;;;1.81;92.71
72961;BME280;61141;46.204;19.774;2023-01-28T02:04:36;100420.53;;;1.76;92.84
72961;BME280;61141;46.204;19.774;2023-01-28T02:07:36;100411.13;;;1.74;92.88
72961;BME280;61141;46.204;19.774;2023-01-28T02:10:40;100403.09;;;1.83;92.33
72961;BME280;61141;46.204;19.774;2023-01-28T02:13:45;100426.38;;;2.01;92.16
72961;BME280;61141;46.204;19.774;2023-01-28T02:16:50;100421.75;;;2.32;91.29
72961;BME280;61141;46.204;19.774;2023-01-28T02:20:05;100412.75;;;2.06;91.58
72961;BME280;61141;46.204;19.774;2023-01-28T02:33:10;100439.94;;;2.09;92.52
72961;BME280;61141;46.204;19.774;2023-01-28T02:36:27;100441.38;;;2.07;91.44
72961;BME280;61141;46.204;19.774;2023-01-28T02:39:39;100437.28;;;2.18;91.52
72961;BME280;61141;46.204;19.774;2023-01-28T02:42:43;100438.44;;;1.72;92.97
72961;BME280;61141;46.204;19.774;2023-01-28T02:45:45;100436.47;;;1.87;93.39
72961;BME280;61141;46.204;19.774;2023-01-28T02:49:33;100425.94;;;1.76;93.24
72961;BME280;61141;46.204;19.774;2023-01-28T02:57:28;100434.25;;;1.89;93.97
72961;BME280;61141;46.204;19.774;2023-01-28T03:00:09;100433.47;;;1.44;96.68
72961;BME280;61141;46.204;19.774;2023-01-28T03:03:18;100433.72;;;1.34;97.72
72961;BME280;61141;46.204;19.774;2023-01-28T03:06:28;100443.50;;;1.65;97.43
72961;BME280;61141;46.204;19.774;2023-01-28T03:09:33;100440.59;;;1.62;97.37
72961;BME280;61141;46.204;19.774;2023-01-28T03:12:39;100441.28;;;1.45;98.29
72961;BME280;61141;46.204;19.774;2023-01-28T03:16:02;100432.38;;;1.45;98.74
72961;BME280;61141;46.204;19.774;2023-01-28T03:19:23;100426.78;;;1.19;99.61
72961;BME280;61141;46.204;19.774;2023-01-28T03:22:46;100440.66;;;1.48;98.06
72961;BME280;61141;46.204;19.774;2023-01-28T03:26:14;100429.69;;;1.45;98.30
72961;BME280;61141;46.204;19.774;2023-01-28T03:29:38;100438.84;;;1.88;97.63
72961;BME280;61141;46.204;19.774;2023-01-28T03:33:03;100435.06;;;1.45;98.07
72961;BME280;61141;46.204;19.774;2023-01-28T03:36:25;100437.69;;;1.81;97.18
72961;BME280;61141;46.204;19.774;2023-01-28T03:39:48;100445.88;;;1.45;97.66
72961;BME280;61141;46.204;19.774;2023-01-28T03:42:52;100422.31;;;1.37;98.83
72961;BME280;61141;46.204;19.774;2023-01-28T03:45:57;100445.56;;;1.24;99.31
72961;BME280;61141;46.204;19.774;2023-01-28T03:49:00;100447.53;;;1.32;98.88
72961;BME280;61141;46.204;19.774;2023-01-28T03:52:03;100445.19;;;1.61;98.18
72961;BME280;61141;46.204;19.774;2023-01-28T03:55:06;100428.19;;;1.39;98.23
72961;BME280;61141;46.204;19.774;2023-01-28T03:58:19;100445.12;;;1.53;98.39
72961;BME280;61141;46.204;19.774;2023-01-28T04:01:22;100422.66;;;1.57;97.56
72961;BME280;61141;46.204;19.774;2023-01-28T04:04:26;100442.00;;;1.37;98.99
72961;BME280;61141;46.204;19.774;2023-01-28T04:07:29;100447.63;;;1.27;99.21
72961;BME280;61141;46.204;19.774;2023-01-28T04:10:36;100446.69;;;1.45;98.46
72961;BME280;61141;46.204;19.774;2023-01-28T04:13:40;100442.69;;;1.43;98.70
72961;BME280;61141;46.204;19.774;2023-01-28T04:16:44;100432.06;;;1.24;99.22
72961;BME280;61141;46.204;19.774;2023-01-28T04:19:47;100447.81;;;1.31;100.00
72961;BME280;61141;46.204;19.774;2023-01-28T04:22:50;100453.28;;;1.39;99.36
72961;BME280;61141;46.204;19.774;2023-01-28T04:25:54;100455.38;;;1.42;99.16
72961;BME280;61141;46.204;19.774;2023-01-28T04:28:57;100468.50;;;1.35;99.77
72961;BME280;61141;46.204;19.774;2023-01-28T04:32:01;100440.72;;;1.35;99.58
72961;BME280;61141;46.204;19.774;2023-01-28T04:35:06;100456.38;;;1.46;99.77
72961;BME280;61141;46.204;19.774;2023-01-28T04:38:09;100475.19;;;1.38;100.00
72961;BME280;61141;46.204;19.774;2023-01-28T04:41:12;100477.09;;;1.37;100.00
72961;BME280;61141;46.204;19.774;2023-01-28T04:44:15;100453.97;;;1.67;99.35
72961;BME280;61141;46.204;19.774;2023-01-28T04:47:19;100465.31;;;1.55;99.70
72961;BME280;61141;46.204;19.774;2023-01-28T04:50:23;100462.91;;;1.32;100.00
72961;BME280;61141;46.204;19.774;2023-01-28T04:53:27;100452.69;;;1.42;100.00
72961;BME280;61141;46.204;19.774;2023-01-28T04:56:30;100477.72;;;1.21;100.00
72961;BME280;61141;46.204;19.774;2023-01-28T04:59:34;100478.53;;;1.21;100.00
72961;BME280;61141;46.204;19.774;2023-01-28T05:02:37;100446.34;;;1.25;100.00
72961;BME280;61141;46.204;19.774;2023-01-28T05:05:41;100481.28;;;1.07;100.00
72961;BME280;61141;46.204;19.774;2023-01-28T05:08:45;100479.25;;;1.13;100.00
72961;BME280;61141;46.204;19.774;2023-01-28T05:11:50;100492.88;;;1.30;100.00
72961;BME280;61141;46.204;19.774;2023-01-28T05:14:53;100475.06;;;1.07;100.00
72961;BME280;61141;46.204;19.774;2023-01-28T05:17:56;100491.50;;;1.19;100.00
72961;BME280;61141;46.204;19.774;2023-01-28T05:20:59;100492.13;;;1.16;100.00
72961;BME280;61141;46.204;19.774;2023-01-28T05:24:04;100478.19;;;0.87;100.00
72961;BME280;61141;46.204;19.774;2023-01-28T05:27:08;100497.16;;;1.45;100.00
72961;BME280;61141;46.204;19.774;2023-01-28T05:30:11;100493.47;;;1.05;100.00
72961;BME280;61141;46.204;19.774;2023-01-28T05:33:14;100481.00;;;0.82;100.00
72961;BME280;61141;46.204;19.774;2023-01-28T05:36:17;100492.75;;;1.13;100.00
72961;BME280;61141;46.204;19.774;2023-01-28T05:39:20;100494.37;;;1.36;100.00
72961;BME280;61141;46.204;19.774;2023-01-28T05:42:23;100497.91;;;1.23;100.00
72961;BME280;61141;46.204;19.774;2023-01-28T05:45:29;100494.34;;;1.00;100.00
72961;BME280;61141;46.204;19.774;2023-01-28T05:48:32;100496.44;;;1.03;100.00
72961;BME280;61141;46.204;19.774;2023-01-28T05:51:35;100496.44;;;1.03;100.00
72961;BME280;61141;46.204;19.774;2023-01-28T05:54:38;100514.47;;;1.30;100.00
72961;BME280;61141;46.204;19.774;2023-01-28T05:57:41;100519.72;;;1.13;100.00
72961;BME280;61141;46.204;19.774;2023-01-28T06:00:47;100509.84;;;1.44;100.00
72961;BME280;61141;46.204;19.774;2023-01-28T06:03:52;100515.66;;;1.73;100.00
72961;BME280;61141;46.204;19.774;2023-01-28T06:06:54;100509.06;;;1.30;100.00
72961;BME280;61141;46.204;19.774;2023-01-28T06:09:58;100502.06;;;1.43;100.00
72961;BME280;61141;46.204;19.774;2023-01-28T06:13:02;100513.66;;;1.43;100.00
72961;BME280;61141;46.204;19.774;2023-01-28T06:16:06;100520.06;;;1.69;100.00
72961;BME280;61141;46.204;19.774;2023-01-28T06:19:10;100504.87;;;1.38;100.00
72961;BME280;61141;46.204;19.774;2023-01-28T06:22:13;100527.78;;;1.62;100.00
72961;BME280;61141;46.204;19.774;2023-01-28T06:25:16;100535.31;;;1.52;100.00
72961;BME280;61141;46.204;19.774;2023-01-28T06:28:19;100534.50;;;1.02;100.00
72961;BME280;61141;46.204;19.774;2023-01-28T06:31:21;100505.34;;;1.04;100.00
72961;BME280;61141;46.204;19.774;2023-01-28T06:34:24;100521.31;;;1.00;100.00
72961;BME280;61141;46.204;19.774;2023-01-28T06:37:27;100541.03;;;1.37;100.00
72961;BME280;61141;46.204;19.774;2023-01-28T06:40:31;100546.91;;;1.52;100.00
72961;BME280;61141;46.204;19.774;2023-01-28T06:43:34;100550.75;;;1.73;99.67
72961;BME280;61141;46.204;19.774;2023-01-28T06:46:37;100562.63;;;1.37;100.00
72961;BME280;61141;46.204;19.774;2023-01-28T06:49:39;100565.63;;;1.22;100.00
72961;BME280;61141;46.204;19.774;2023-01-28T06:52:42;100573.59;;;1.54;100.00
72961;BME280;61141;46.204;19.774;2023-01-28T06:55:45;100580.59;;;1.41;100.00
72961;BME280;61141;46.204;19.774;2023-01-28T06:58:48;100565.59;;;1.62;99.55
72961;BME280;61141;46.204;19.774;2023-01-28T07:01:51;100565.06;;;1.60;99.50
72961;BME280;61141;46.204;19.774;2023-01-28T07:04:54;100553.41;;;1.51;100.00
72961;BME280;61141;46.204;19.774;2023-01-28T07:07:57;100561.25;;;1.26;100.00
72961;BME280;61141;46.204;19.774;2023-01-28T07:11:00;100577.38;;;1.53;100.00
72961;BME280;61141;46.204;19.774;2023-01-28T07:14:03;100578.16;;;1.67;98.71
72961;BME280;61141;46.204;19.774;2023-01-28T07:17:06;100552.09;;;1.13;100.00
72961;BME280;61141;46.204;19.774;2023-01-28T07:20:11;100591.31;;;1.19;100.00
72961;BME280;61141;46.204;19.774;2023-01-28T07:23:16;100584.62;;;1.30;99.96
72961;BME280;61141;46.204;19.774;2023-01-28T07:26:18;100597.59;;;1.42;100.00
72961;BME280;61141;46.204;19.774;2023-01-28T07:29:22;100573.66;;;1.27;100.00
72961;BME280;61141;46.204;19.774;2023-01-28T07:32:25;100604.91;;;1.28;100.00
72961;BME280;61141;46.204;19.774;2023-01-28T07:35:30;100603.25;;;1.67;100.00
72961;BME280;61141;46.204;19.774;2023-01-28T07:38:33;100603.03;;;1.77;99.78
72961;BME280;61141;46.204;19.774;2023-01-28T07:41:37;100577.47;;;1.61;99.43
72961;BME280;61141;46.204;19.774;2023-01-28T07:44:40;100579.41;;;1.47;99.40
72961;BME280;61141;46.204;19.774;2023-01-28T07:47:43;100579.03;;;1.40;99.15
72961;BME280;61141;46.204;19.774;2023-01-28T07:50:46;100585.69;;;1.56;98.75
72961;BME280;61141;46.204;19.774;2023-01-28T07:53:51;100593.81;;;1.43;99.43
72961;BME280;61141;46.204;19.774;2023-01-28T07:56:53;100590.84;;;1.66;98.68
72961;BME280;61141;46.204;19.774;2023-01-28T07:59:56;100619.16;;;1.69;98.05
72961;BME280;61141;46.204;19.774;2023-01-28T08:03:01;100621.13;;;1.77;98.09
72961;BME280;61141;46.204;19.774;2023-01-28T08:06:05;100620.47;;;1.94;96.82
72961;BME280;61141;46.204;19.774;2023-01-28T08:09:08;100627.47;;;1.59;97.92
72961;BME280;61141;46.204;19.774;2023-01-28T08:12:11;100622.66;;;1.69;97.02
72961;BME280;61141;46.204;19.774;2023-01-28T08:15:13;100592.28;;;1.50;97.19
72961;BME280;61141;46.204;19.774;2023-01-28T08:18:16;100617.41;;;1.87;96.58
72961;BME280;61141;46.204;19.774;2023-01-28T08:21:19;100608.12;;;1.79;97.17
72961;BME280;61141;46.204;19.774;2023-01-28T08:24:22;100614.75;;;2.09;95.95
72961;BME280;61141;46.204;19.774;2023-01-28T08:27:25;100622.22;;;2.12;94.88
72961;BME280;61141;46.204;19.774;2023-01-28T08:30:32;100631.31;;;2.38;94.91
72961;BME280;61141;46.204;19.774;2023-01-28T08:33:35;100607.50;;;1.96;93.90
72961;BME280;61141;46.204;19.774;2023-01-28T08:36:38;100622.22;;;1.90;94.29
72961;BME280;61141;46.204;19.774;2023-01-28T08:39:41;100645.22;;;2.23;94.19
72961;BME280;61141;46.204;19.774;2023-01-28T08:42:51;100642.38;;;2.28;93.79
72961;BME280;61141;46.204;19.774;2023-01-28T08:45:54;100647.97;;;2.09;93.91
72961;BME280;61141;46.204;19.774;2023-01-28T08:48:57;100614.88;;;2.04;93.46
72961;BME280;61141;46.204;19.774;2023-01-28T08:52:00;100658.59;;;2.28;92.34
72961;BME280;61141;46.204;19.774;2023-01-28T08:55:03;100656.16;;;2.18;93.34
72961;BME280;61141;46.204;19.774;2023-01-28T08:58:09;100651.38;;;2.37;93.36
72961;BME280;61141;46.204;19.774;2023-01-28T09:01:13;100653.44;;;2.62;91.86
72961;BME280;61141;46.204;19.774;2023-01-28T09:04:15;100641.38;;;2.68;91.04
72961;BME280;61141;46.204;19.774;2023-01-28T09:07:19;100648.09;;;2.26;91.84
72961;BME280;61141;46.204;19.774;2023-01-28T09:10:21;100666.09;;;2.31;92.68
72961;BME280;61141;46.204;19.774;2023-01-28T09:13:24;100666.91;;;2.54;90.96
72961;BME280;61141;46.204;19.774;2023-01-28T09:16:28;100629.41;;;2.38;91.36
72961;BME280;61141;46.204;19.774;2023-01-28T09:19:31;100663.19;;;2.27;91.60
72961;BME280;61141;46.204;19.774;2023-01-28T09:22:34;100626.91;;;2.42;91.40
72961;BME280;61141;46.204;19.774;2023-01-28T09:25:37;100670.56;;;2.58;91.89
72961;BME280;61141;46.204;19.774;2023-01-28T09:28:39;100665.72;;;2.68;91.03
72961;BME280;61141;46.204;19.774;2023-01-28T09:31:42;100666.00;;;2.89;90.25
72961;BME280;61141;46.204;19.774;2023-01-28T09:34:46;100674.97;;;2.45;91.35
72961;BME280;61141;46.204;19.774;2023-01-28T09:37:49;100663.44;;;2.17;91.44
72961;BME280;61141;46.204;19.774;2023-01-28T09:40:53;100669.41;;;2.28;92.63
72961;BME280;61141;46.204;19.774;2023-01-28T09:47:03;100675.25;;;2.44;92.18
72961;BME280;61141;46.204;19.774;2023-01-28T09:50:13;100674.69;;;2.55;91.29
72961;BME280;61141;46.204;19.774;2023-01-28T09:53:28;100671.94;;;2.47;92.22
72961;BME280;61141;46.204;19.774;2023-01-28T09:56:41;100678.38;;;2.81;90.49
72961;BME280;61141;46.204;19.774;2023-01-28T09:59:47;100673.41;;;2.75;90.76
72961;BME280;61141;46.204;19.774;2023-01-28T10:10:26;100679.50;;;2.58;91.57
72961;BME280;61141;46.204;19.774;2023-01-28T10:13:59;100691.41;;;2.79;91.41
72961;BME280;61141;46.204;19.774;2023-01-28T10:17:12;100693.94;;;2.54;91.36
72961;BME280;61141;46.204;19.774;2023-01-28T10:20:29;100685.31;;;2.52;92.47
72961;BME280;61141;46.204;19.774;2023-01-28T10:23:51;100687.59;;;2.80;91.26
72961;BME280;61141;46.204;19.774;2023-01-28T10:26:57;100685.91;;;2.62;92.02
72961;BME280;61141;46.204;19.774;2023-01-28T10:30:15;100686.97;;;2.83;90.76
72961;BME280;61141;46.204;19.774;2023-01-28T10:33:27;100677.94;;;3.19;89.56
72961;BME280;61141;46.204;19.774;2023-01-28T10:36:31;100688.13;;;2.91;91.90
72961;BME280;61141;46.204;19.774;2023-01-28T10:39:34;100672.81;;;3.09;90.74
72961;BME280;61141;46.204;19.774;2023-01-28T10:42:37;100656.78;;;2.90;90.79
72961;BME280;61141;46.204;19.774;2023-01-28T10:45:53;100674.84;;;3.03;91.21
72961;BME280;61141;46.204;19.774;2023-01-28T10:49:12;100684.94;;;3.20;89.62
72961;BME280;61141;46.204;19.774;2023-01-28T10:52:17;100668.31;;;3.04;91.09
72961;BME280;61141;46.204;19.774;2023-01-28T10:55:20;100679.84;;;2.87;91.37
72961;BME280;61141;46.204;19.774;2023-01-28T10:58:27;100676.97;;;2.84;91.58
72961;BME280;61141;46.204;19.774;2023-01-28T11:01:43;100679.34;;;2.85;91.67
72961;BME280;61141;46.204;19.774;2023-01-28T11:04:47;100677.72;;;2.76;90.97
72961;BME280;61141;46.204;19.774;2023-01-28T11:07:49;100676.88;;;2.97;89.88
72961;BME280;61141;46.204;19.774;2023-01-28T11:10:57;100667.06;;;2.79;91.21
72961;BME280;61141;46.204;19.774;2023-01-28T11:14:00;100680.97;;;2.86;91.08
72961;BME280;61141;46.204;19.774;2023-01-28T11:17:03;100655.84;;;2.64;91.49
72961;BME280;61141;46.204;19.774;2023-01-28T11:20:17;100674.66;;;3.00;90.90
72961;BME280;61141;46.204;19.774;2023-01-28T11:23:27;100669.47;;;3.12;89.65
72961;BME280;61141;46.204;19.774;2023-01-28T11:26:37;100677.94;;;3.19;89.30
72961;BME280;61141;46.204;19.774;2023-01-28T11:29:40;100675.03;;;3.15;89.45
72961;BME280;61141;46.204;19.774;2023-01-28T11:32:54;100679.03;;;3.18;89.75
72961;BME280;61141;46.204;19.774;2023-01-28T11:39:33;100677.53;;;3.34;89.51
72961;BME280;61141;46.204;19.774;2023-01-28T11:42:36;100666.03;;;3.28;89.03
72961;BME280;61141;46.204;19.774;2023-01-28T11:45:46;100678.50;;;3.38;88.82
72961;BME280;61141;46.204;19.774;2023-01-28T11:52:06;100674.03;;;3.33;87.20
72961;BME280;61141;46.204;19.774;2023-01-28T12:08:50;100669.88;;;2.96;89.31
72961;BME280;61141;46.204;19.774;2023-01-28T12:26:03;100684.00;;;3.24;88.47
72961;BME280;61141;46.204;19.774;2023-01-28T12:33:00;100679.62;;;3.06;88.27
72961;BME280;61141;46.204;19.774;2023-01-28T12:36:14;100668.78;;;3.37;88.85
72961;BME280;61141;46.204;19.774;2023-01-28T12:39:35;100675.00;;;3.46;87.76
72961;BME280;61141;46.204;19.774;2023-01-28T12:42:51;100665.28;;;3.36;86.93
72961;BME280;61141;46.204;19.774;2023-01-28T12:45:59;100670.25;;;3.51;88.03
72961;BME280;61141;46.204;19.774;2023-01-28T12:49:24;100677.87;;;3.41;86.83
72961;BME280;61141;46.204;19.774;2023-01-28T12:52:35;100675.59;;;3.34;86.98
72961;BME280;61141;46.204;19.774;2023-01-28T12:56:02;100675.94;;;3.02;87.79
72961;BME280;61141;46.204;19.774;2023-01-28T12:59:29;100677.37;;;3.39;87.40
72961;BME280;61141;46.204;19.774;2023-01-28T13:02:41;100679.41;;;3.25;87.39
72961;BME280;61141;46.204;19.774;2023-01-28T13:05:54;100679.91;;;3.35;86.97
72961;BME280;61141;46.204;19.774;2023-01-28T13:09:02;100677.37;;;3.39;85.88
72961;BME280;61141;46.204;19.774;2023-01-28T13:12:12;100683.88;;;3.29;85.73
72961;BME280;61141;46.204;19.774;2023-01-28T13:15:17;100681.19;;;3.38;85.80
72961;BME280;61141;46.204;19.774;2023-01-28T13:21:35;100693.69;;;3.17;86.02
72961;BME280;61141;46.204;19.774;2023-01-28T13:24:50;100699.25;;;3.12;85.87
72961;BME280;61141;46.204;19.774;2023-01-28T13:27:59;100693.59;;;3.30;85.68
72961;BME280;61141;46.204;19.774;2023-01-28T13:31:15;100701.94;;;3.12;87.36
72961;BME280;61141;46.204;19.774;2023-01-28T13:34:40;100705.34;;;3.65;85.68
72961;BME280;61141;46.204;19.774;2023-01-28T13:37:45;100701.69;;;3.61;85.32
72961;BME280;61141;46.204;19.774;2023-01-28T13:40:56;100710.78;;;3.34;85.63
72961;BME280;61141;46.204;19.774;2023-01-28T13:44:00;100713.75;;;3.55;86.56
72961;BME280;61141;46.204;19.774;2023-01-28T13:50:17;100715.34;;;3.47;85.67
72961;BME280;61141;46.204;19.774;2023-01-28T13:53:36;100722.00;;;3.11;86.76
72961;BME280;61141;46.204;19.774;2023-01-28T14:06:33;100731.50;;;3.30;86.98
72961;BME280;61141;46.204;19.774;2023-01-28T14:23:29;100740.03;;;3.24;86.81
72961;BME280;61141;46.204;19.774;2023-01-28T14:33:35;100731.16;;;3.01;87.55
72961;BME280;61141;46.204;19.774;2023-01-28T14:36:41;100750.72;;;3.20;87.45
72961;BME280;61141;46.204;19.774;2023-01-28T14:39:56;100754.34;;;3.16;87.80
72961;BME280;61141;46.204;19.774;2023-01-28T14:43:01;100759.75;;;3.46;86.93
72961;BME280;61141;46.204;19.774;2023-01-28T14:49:30;100764.53;;;3.19;86.94
72961;BME280;61141;46.204;19.774;2023-01-28T14:53:05;100765.34;;;3.19;87.32
72961;BME280;61141;46.204;19.774;2023-01-28T15:00:16;100767.22;;;3.41;86.61
72961;BME280;61141;46.204;19.774;2023-01-28T15:03:20;100772.56;;;3.32;87.26
72961;BME280;61141;46.204;19.774;2023-01-28T15:06:34;100747.50;;;3.18;87.36
72961;BME280;61141;46.204;19.774;2023-01-28T15:09:37;100776.72;;;3.30;88.25
72961;BME280;61141;46.204;19.774;2023-01-28T15:12:43;100785.34;;;3.10;89.30
72961;BME280;61141;46.204;19.774;2023-01-28T15:15:49;100783.28;;;3.37;89.01
72961;BME280;61141;46.204;19.774;2023-01-28T15:18:52;100774.81;;;3.08;90.03
72961;BME280;61141;46.204;19.774;2023-01-28T15:21:58;100767.62;;;3.26;89.54
72961;BME280;61141;46.204;19.774;2023-01-28T15:25:02;100802.28;;;3.46;89.55
72961;BME280;61141;46.204;19.774;2023-01-28T15:28:05;100788.34;;;3.30;89.47
72961;BME280;61141;46.204;19.774;2023-01-28T15:31:20;100781.72;;;2.92;90.46
72961;BME280;61141;46.204;19.774;2023-01-28T15:34:23;100811.78;;;3.35;90.77
72961;BME280;61141;46.204;19.774;2023-01-28T15:37:31;100804.94;;;2.93;92.11
72961;BME280;61141;46.204;19.774;2023-01-28T15:40:41;100801.69;;;3.05;91.90
72961;BME280;61141;46.204;19.774;2023-01-28T15:43:47;100805.63;;;3.21;92.15
72961;BME280;61141;46.204;19.774;2023-01-28T15:46:50;100809.00;;;3.04;91.67
72961;BME280;61141;46.204;19.774;2023-01-28T15:49:55;100812.66;;;3.22;91.78
72961;BME280;61141;46.204;19.774;2023-01-28T15:52:58;100818.41;;;3.07;91.77
72961;BME280;61141;46.204;19.774;2023-01-28T15:56:07;100816.84;;;3.06;92.68
72961;BME280;61141;46.204;19.774;2023-01-28T15:59:28;100834.38;;;3.08;92.65
72961;BME280;61141;46.204;19.774;2023-01-28T16:02:33;100836.75;;;3.32;92.34
72961;BME280;61141;46.204;19.774;2023-01-28T16:05:55;100833.81;;;2.97;92.80
72961;BME280;61141;46.204;19.774;2023-01-28T16:09:02;100845.25;;;2.94;93.30
72961;BME280;61141;46.204;19.774;2023-01-28T16:12:07;100850.00;;;2.75;94.48
72961;BME280;61141;46.204;19.774;2023-01-28T16:15:16;100850.00;;;2.75;93.94
72961;BME280;61141;46.204;19.774;2023-01-28T16:18:38;100832.53;;;2.95;93.61
72961;BME280;61141;46.204;19.774;2023-01-28T16:21:44;100864.19;;;2.94;93.24
72961;BME280;61141;46.204;19.774;2023-01-28T16:24:49;100856.97;;;3.12;93.47
72961;BME280;61141;46.204;19.774;2023-01-28T16:27:57;100858.50;;;2.82;93.50
72961;BME280;61141;46.204;19.774;2023-01-28T16:31:01;100870.22;;;2.78;93.47
72961;BME280;61141;46.204;19.774;2023-01-28T16:34:04;100871.56;;;3.03;93.65
72961;BME280;61141;46.204;19.774;2023-01-28T16:37:08;100870.47;;;2.90;93.88
72961;BME280;61141;46.204;19.774;2023-01-28T16:40:14;100865.47;;;2.61;93.70
72961;BME280;61141;46.204;19.774;2023-01-28T16:43:17;100881.56;;;2.66;94.68
72961;BME280;61141;46.204;19.774;2023-01-28T16:46:20;100876.59;;;2.95;94.75
72961;BME280;61141;46.204;19.774;2023-01-28T16:49:23;100863.69;;;2.92;94.25
72961;BME280;61141;46.204;19.774;2023-01-28T16:52:26;100879.06;;;2.70;94.96
72961;BME280;61141;46.204;19.774;2023-01-28T16:55:29;100884.13;;;2.85;95.02
72961;BME280;61141;46.204;19.774;2023-01-28T16:58:32;100883.56;;;2.74;95.04
72961;BME280;61141;46.204;19.774;2023-01-28T17:01:35;100890.75;;;2.92;94.42
72961;BME280;61141;46.204;19.774;2023-01-28T17:04:38;100888.56;;;2.81;94.89
72961;BME280;61141;46.204;19.774;2023-01-28T17:07:41;100891.97;;;2.86;94.10
72961;BME280;61141;46.204;19.774;2023-01-28T17:10:44;100895.38;;;2.78;95.18
72961;BME280;61141;46.204;19.774;2023-01-28T17:13:47;100899.38;;;2.81;95.22
72961;BME280;61141;46.204;19.774;2023-01-28T17:16:50;100893.19;;;2.67;95.75
72961;BME280;61141;46.204;19.774;2023-01-28T17:19:53;100907.41;;;2.72;95.38
72961;BME280;61141;46.204;19.774;2023-01-28T17:22:56;100898.81;;;2.70;95.43
72961;BME280;61141;46.204;19.774;2023-01-28T17:26:07;100915.06;;;2.57;95.94
72961;BME280;61141;46.204;19.774;2023-01-28T17:29:10;100916.44;;;2.68;96.48
72961;BME280;61141;46.204;19.774;2023-01-28T17:32:13;100919.53;;;2.75;96.59
72961;BME280;61141;46.204;19.774;2023-01-28T17:35:16;100921.66;;;2.64;96.55
72961;BME280;61141;46.204;19.774;2023-01-28T17:38:20;100924.47;;;2.59;96.79
72961;BME280;61141;46.204;19.774;2023-01-28T17:41:23;100929.66;;;2.42;97.26
72961;BME280;61141;46.204;19.774;2023-01-28T17:44:26;100935.66;;;2.53;97.02
72961;BME280;61141;46.204;19.774;2023-01-28T17:47:29;100930.94;;;2.72;96.72
72961;BME280;61141;46.204;19.774;2023-01-28T17:50:32;100931.03;;;2.80;96.33
72961;BME280;61141;46.204;19.774;2023-01-28T17:53:35;100921.94;;;2.63;96.42
72961;BME280;61141;46.204;19.774;2023-01-28T17:56:39;100914.31;;;2.78;95.54
72961;BME280;61141;46.204;19.774;2023-01-28T17:59:41;100906.34;;;2.95;94.50